createdAt,value
2023-05-20T00:00:03.289Z,496.0000
2023-05-20T00:01:11.622Z,506.0000
2023-05-20T00:02:19.466Z,502.0000
2023-05-20T00:03:27.758Z,503.0000
2023-05-20T00:04:35.647Z,501.0000
2023-05-20T00:05:44.007Z,502.0000
2023-05-20T00:06:51.825Z,500.0000
2023-05-20T00:07:59.750Z,500.0000
2023-05-20T00:09:07.811Z,514.0000
2023-05-20T00:10:15.872Z,504.0000
2023-05-20T00:11:23.851Z,506.0000
2023-05-20T00:12:31.861Z,499.0000
2023-05-20T00:13:39.952Z,518.0000
2023-05-20T00:14:48.132Z,506.0000
2023-05-20T00:15:56.356Z,507.0000
2023-05-20T00:17:04.312Z,500.0000
2023-05-20T00:18:12.490Z,512.0000
2023-05-20T00:19:20.448Z,503.0000
2023-05-20T00:20:28.500Z,502.0000
2023-05-20T00:21:36.730Z,505.0000
2023-05-20T00:22:44.611Z,510.0000
2023-05-20T00:23:52.721Z,520.0000
2023-05-20T00:25:00.722Z,518.0000
2023-05-20T00:26:08.698Z,517.0000
2023-05-20T00:27:16.722Z,520.0000
2023-05-20T00:28:24.789Z,522.0000
2023-05-20T00:29:32.941Z,510.0000
2023-05-20T00:30:41.076Z,508.0000
2023-05-20T00:31:49.185Z,508.0000
2023-05-20T00:32:57.274Z,510.0000
2023-05-20T00:34:05.235Z,506.0000
2023-05-20T00:35:13.380Z,527.0000
2023-05-20T00:36:21.357Z,523.0000
2023-05-20T00:37:29.508Z,513.0000
2023-05-20T00:38:37.652Z,514.0000
2023-05-20T00:39:45.581Z,518.0000
2023-05-20T00:40:53.493Z,522.0000
2023-05-20T00:42:01.593Z,513.0000
2023-05-20T00:43:09.649Z,523.0000
2023-05-20T00:44:17.853Z,518.0000
2023-05-20T00:45:25.886Z,521.0000
2023-05-20T00:46:34.146Z,524.0000
2023-05-20T00:47:41.942Z,523.0000
2023-05-20T00:48:50.097Z,524.0000
2023-05-20T00:49:58.188Z,514.0000
2023-05-20T00:51:06.229Z,510.0000
2023-05-20T00:52:14.378Z,519.0000
2023-05-20T00:53:22.361Z,522.0000
2023-05-20T00:54:30.466Z,522.0000
2023-05-20T00:55:38.355Z,526.0000
2023-05-20T00:56:46.406Z,530.0000
2023-05-20T00:57:54.515Z,531.0000
2023-05-20T00:59:02.705Z,531.0000
2023-05-20T01:00:10.926Z,524.0000
2023-05-20T01:01:18.807Z,524.0000
2023-05-20T01:02:26.980Z,522.0000
2023-05-20T01:03:34.996Z,522.0000
2023-05-20T01:04:43.009Z,525.0000
2023-05-20T01:05:51.113Z,523.0000
2023-05-20T01:06:59.120Z,522.0000
2023-05-20T01:08:07.237Z,537.0000
2023-05-20T01:09:15.261Z,538.0000
2023-05-20T01:10:23.203Z,544.0000
2023-05-20T01:11:31.251Z,547.0000
2023-05-20T01:12:39.332Z,543.0000
2023-05-20T01:13:47.651Z,549.0000
2023-05-20T01:14:55.661Z,549.0000
2023-05-20T01:16:03.746Z,549.0000
2023-05-20T01:17:11.791Z,546.0000
2023-05-20T01:18:19.953Z,542.0000
2023-05-20T01:19:27.975Z,541.0000
2023-05-20T01:20:36.193Z,541.0000
2023-05-20T01:21:44.085Z,546.0000
2023-05-20T01:22:52.160Z,549.0000
2023-05-20T01:24:00.163Z,552.0000
2023-05-20T01:25:08.093Z,550.0000
2023-05-20T01:26:16.163Z,541.0000
2023-05-20T01:27:24.228Z,538.0000
2023-05-20T01:28:32.617Z,546.0000
2023-05-20T01:29:40.484Z,540.0000
2023-05-20T01:30:48.571Z,537.0000
2023-05-20T01:31:56.722Z,531.0000
2023-05-20T01:33:04.744Z,529.0000
2023-05-20T01:34:12.805Z,528.0000
2023-05-20T01:35:20.824Z,529.0000
2023-05-20T01:36:28.909Z,516.0000
2023-05-20T01:37:36.938Z,521.0000
2023-05-20T01:38:45.054Z,526.0000
2023-05-20T01:39:52.929Z,534.0000
2023-05-20T01:41:00.975Z,542.0000
2023-05-20T01:42:09.033Z,544.0000
2023-05-20T01:43:17.816Z,550.0000
2023-05-20T01:44:25.523Z,552.0000
2023-05-20T01:45:33.526Z,547.0000
2023-05-20T01:46:41.512Z,549.0000
2023-05-20T01:47:49.630Z,553.0000
2023-05-20T01:48:57.407Z,554.0000
2023-05-20T01:50:05.633Z,556.0000
2023-05-20T01:51:13.880Z,558.0000
2023-05-20T01:52:21.858Z,546.0000
2023-05-20T01:53:29.821Z,553.0000
2023-05-20T01:54:37.874Z,558.0000
2023-05-20T01:55:46.062Z,557.0000
2023-05-20T01:56:54.045Z,551.0000
2023-05-20T01:58:01.944Z,554.0000
2023-05-20T01:59:09.995Z,549.0000
2023-05-20T02:00:18.051Z,546.0000
2023-05-20T02:01:26.497Z,544.0000
2023-05-20T02:02:34.384Z,540.0000
2023-05-20T02:03:42.555Z,544.0000
2023-05-20T02:04:50.437Z,544.0000
2023-05-20T02:05:58.633Z,547.0000
2023-05-20T02:07:06.609Z,553.0000
2023-05-20T02:08:14.749Z,549.0000
2023-05-20T02:09:22.684Z,548.0000
2023-05-20T02:10:30.792Z,553.0000
2023-05-20T02:11:38.920Z,556.0000
2023-05-20T02:12:46.752Z,562.0000
2023-05-20T02:13:54.823Z,561.0000
2023-05-20T02:15:02.898Z,557.0000
2023-05-20T02:16:11.155Z,553.0000
2023-05-20T02:17:19.203Z,560.0000
2023-05-20T02:18:27.270Z,566.0000
2023-05-20T02:19:35.303Z,563.0000
2023-05-20T02:20:43.375Z,564.0000
2023-05-20T02:21:51.425Z,564.0000
2023-05-20T02:22:59.552Z,565.0000
2023-05-20T02:24:07.499Z,575.0000
2023-05-20T02:25:15.834Z,575.0000
2023-05-20T02:26:23.653Z,577.0000
2023-05-20T02:27:31.607Z,578.0000
2023-05-20T02:28:39.691Z,572.0000
2023-05-20T02:29:47.717Z,571.0000
2023-05-20T02:30:55.887Z,570.0000
2023-05-20T02:32:03.971Z,572.0000
2023-05-20T02:33:12.250Z,573.0000
2023-05-20T02:34:20.121Z,565.0000
2023-05-20T02:35:28.152Z,560.0000
2023-05-20T02:36:36.320Z,564.0000
2023-05-20T02:37:44.498Z,574.0000
2023-05-20T02:38:52.359Z,573.0000
2023-05-20T02:40:00.467Z,568.0000
2023-05-20T02:41:08.550Z,568.0000
2023-05-20T02:42:16.472Z,572.0000
2023-05-20T02:43:24.506Z,573.0000
2023-05-20T02:44:32.568Z,568.0000
2023-05-20T02:45:40.925Z,563.0000
2023-05-20T02:46:48.900Z,563.0000
2023-05-20T02:47:56.945Z,565.0000
2023-05-20T02:49:05.018Z,564.0000
2023-05-20T02:50:12.883Z,558.0000
2023-05-20T02:51:21.094Z,560.0000
2023-05-20T02:52:29.292Z,566.0000
2023-05-20T02:53:37.199Z,563.0000
2023-05-20T02:54:45.262Z,562.0000
2023-05-20T02:55:53.352Z,556.0000
2023-05-20T02:57:01.255Z,556.0000
2023-05-20T02:58:09.556Z,555.0000
2023-05-20T02:59:17.429Z,563.0000
2023-05-20T03:00:25.611Z,564.0000
2023-05-20T03:01:33.738Z,568.0000
2023-05-20T03:02:41.939Z,572.0000
2023-05-20T03:03:49.913Z,573.0000
2023-05-20T03:04:57.846Z,570.0000
2023-05-20T03:06:05.943Z,574.0000
2023-05-20T03:07:14.037Z,577.0000
2023-05-20T03:08:22.113Z,577.0000
2023-05-20T03:09:30.103Z,576.0000
2023-05-20T03:10:38.212Z,580.0000
2023-05-20T03:11:46.126Z,583.0000
2023-05-20T03:12:54.266Z,583.0000
2023-05-20T03:14:02.270Z,581.0000
2023-05-20T03:15:10.593Z,574.0000
2023-05-20T03:16:18.731Z,568.0000
2023-05-20T03:17:26.597Z,551.0000
2023-05-20T03:18:34.703Z,549.0000
2023-05-20T03:19:42.982Z,544.0000
2023-05-20T03:20:50.776Z,544.0000
2023-05-20T03:21:58.852Z,543.0000
2023-05-20T03:23:07.005Z,544.0000
2023-05-20T03:24:15.088Z,545.0000
2023-05-20T03:25:23.003Z,538.0000
2023-05-20T03:26:30.992Z,540.0000
2023-05-20T03:27:39.020Z,551.0000
2023-05-20T03:28:47.139Z,550.0000
2023-05-20T03:29:55.273Z,555.0000
2023-05-20T03:31:03.564Z,556.0000
2023-05-20T03:32:11.512Z,552.0000
2023-05-20T03:33:19.543Z,546.0000
2023-05-20T03:34:27.557Z,546.0000
2023-05-20T03:35:35.924Z,547.0000
2023-05-20T03:36:43.706Z,546.0000
2023-05-20T03:37:51.868Z,573.0000
2023-05-20T03:38:59.871Z,595.0000
2023-05-20T03:40:07.900Z,604.0000
2023-05-20T03:41:15.833Z,608.0000
2023-05-20T03:42:23.886Z,614.0000
2023-05-20T03:43:31.991Z,616.0000
2023-05-20T03:44:40.169Z,618.0000
2023-05-20T03:45:48.232Z,624.0000
2023-05-20T03:46:56.473Z,621.0000
2023-05-20T03:48:04.351Z,618.0000
2023-05-20T03:49:12.464Z,612.0000
2023-05-20T03:50:20.500Z,598.0000
2023-05-20T03:51:28.752Z,582.0000
2023-05-20T03:52:36.572Z,579.0000
2023-05-20T03:53:44.899Z,573.0000
2023-05-20T03:54:52.589Z,576.0000
2023-05-20T03:56:00.665Z,569.0000
2023-05-20T03:57:08.723Z,555.0000
2023-05-20T03:58:16.905Z,552.0000
2023-05-20T03:59:25.004Z,544.0000
2023-05-20T04:00:33.037Z,551.0000
2023-05-20T04:01:41.285Z,566.0000
2023-05-20T04:02:49.310Z,570.0000
2023-05-20T04:03:57.485Z,573.0000
2023-05-20T04:05:05.407Z,577.0000
2023-05-20T04:06:13.489Z,580.0000
2023-05-20T04:07:21.402Z,578.0000
2023-05-20T04:08:29.548Z,575.0000
2023-05-20T04:09:37.426Z,575.0000
2023-05-20T04:10:45.511Z,575.0000
2023-05-20T04:11:53.576Z,571.0000
2023-05-20T04:13:01.803Z,567.0000
2023-05-20T04:14:09.819Z,558.0000
2023-05-20T04:15:17.933Z,545.0000
2023-05-20T04:16:26.282Z,541.0000
2023-05-20T04:17:34.175Z,537.0000
2023-05-20T04:18:42.128Z,534.0000
2023-05-20T04:19:50.208Z,539.0000
2023-05-20T04:20:58.204Z,537.0000
2023-05-20T04:22:06.256Z,535.0000
2023-05-20T04:23:14.348Z,540.0000
2023-05-20T04:24:22.249Z,540.0000
2023-05-20T04:25:30.334Z,537.0000
2023-05-20T04:26:38.388Z,536.0000
2023-05-20T04:27:46.631Z,538.0000
2023-05-20T04:28:54.611Z,543.0000
2023-05-20T04:30:02.762Z,548.0000
2023-05-20T04:31:10.865Z,551.0000
2023-05-20T04:32:18.873Z,542.0000
2023-05-20T04:33:27.042Z,545.0000
2023-05-20T04:34:34.982Z,545.0000
2023-05-20T04:35:43.177Z,543.0000
2023-05-20T04:36:51.062Z,539.0000
2023-05-20T04:37:59.109Z,532.0000
2023-05-20T04:39:07.092Z,533.0000
2023-05-20T04:40:15.126Z,539.0000
2023-05-20T04:41:23.164Z,545.0000
2023-05-20T04:42:31.471Z,547.0000
2023-05-20T04:43:39.430Z,545.0000
2023-05-20T04:44:47.525Z,555.0000
2023-05-20T04:45:55.567Z,555.0000
2023-05-20T04:47:03.635Z,555.0000
2023-05-20T04:48:11.739Z,547.0000
2023-05-20T04:49:19.945Z,550.0000
2023-05-20T04:50:27.861Z,544.0000
2023-05-20T04:51:35.920Z,541.0000
2023-05-20T04:52:43.979Z,535.0000
2023-05-20T04:53:51.902Z,535.0000
2023-05-20T04:55:00.028Z,531.0000
2023-05-20T04:56:08.048Z,527.0000
2023-05-20T04:57:16.422Z,530.0000
2023-05-20T04:58:24.445Z,529.0000
2023-05-20T04:59:32.391Z,528.0000
2023-05-20T05:00:40.379Z,519.0000
2023-05-20T05:01:48.618Z,533.0000
2023-05-20T05:02:56.663Z,526.0000
2023-05-20T05:04:04.545Z,526.0000
2023-05-20T05:05:12.989Z,525.0000
2023-05-20T05:06:20.733Z,524.0000
2023-05-20T05:07:28.755Z,522.0000
2023-05-20T05:08:36.702Z,520.0000
2023-05-20T05:09:44.835Z,517.0000
2023-05-20T05:10:52.864Z,513.0000
2023-05-20T05:12:01.044Z,515.0000
2023-05-20T05:13:09.094Z,523.0000
2023-05-20T05:14:17.331Z,523.0000
2023-05-20T05:15:25.279Z,521.0000
2023-05-20T05:16:33.512Z,525.0000
2023-05-20T05:17:41.427Z,529.0000
2023-05-20T05:18:49.458Z,530.0000
2023-05-20T05:19:57.537Z,529.0000
2023-05-20T05:21:05.573Z,524.0000
2023-05-20T05:22:13.739Z,525.0000
2023-05-20T05:23:21.534Z,525.0000
2023-05-20T05:24:29.671Z,521.0000
2023-05-20T05:25:37.767Z,521.0000
2023-05-20T05:26:45.973Z,524.0000
2023-05-20T05:27:53.995Z,518.0000
2023-05-20T05:29:02.072Z,517.0000
2023-05-20T05:30:10.309Z,510.0000
2023-05-20T05:31:18.185Z,509.0000
2023-05-20T05:32:26.476Z,509.0000
2023-05-20T05:33:34.338Z,506.0000
2023-05-20T05:34:42.351Z,512.0000
2023-05-20T05:35:50.691Z,510.0000
2023-05-20T05:36:58.523Z,511.0000
2023-05-20T05:38:06.453Z,522.0000
2023-05-20T05:39:14.516Z,516.0000
2023-05-20T05:40:22.617Z,514.0000
2023-05-20T05:41:30.796Z,513.0000
2023-05-20T05:42:38.819Z,505.0000
2023-05-20T05:43:46.924Z,501.0000
2023-05-20T05:44:54.938Z,500.0000
2023-05-20T05:46:03.236Z,506.0000
2023-05-20T05:47:11.175Z,503.0000
2023-05-20T05:48:19.131Z,504.0000
2023-05-20T05:49:27.408Z,503.0000
2023-05-20T05:50:35.244Z,493.0000
2023-05-20T05:51:43.572Z,497.0000
2023-05-20T05:52:51.208Z,499.0000
2023-05-20T05:53:59.310Z,501.0000
2023-05-20T05:55:07.373Z,500.0000
2023-05-20T05:56:15.616Z,498.0000
2023-05-20T05:57:23.624Z,498.0000
2023-05-20T05:58:31.804Z,506.0000
2023-05-20T05:59:39.737Z,498.0000
2023-05-20T06:00:47.937Z,498.0000
2023-05-20T06:01:56.162Z,494.0000
2023-05-20T06:03:04.102Z,485.0000
2023-05-20T06:04:12.063Z,508.0000
2023-05-20T06:05:20.056Z,505.0000
2023-05-20T06:06:28.183Z,503.0000
2023-05-20T06:07:36.059Z,504.0000
2023-05-20T06:08:44.130Z,483.0000
2023-05-20T06:09:52.202Z,511.0000
2023-05-20T06:11:00.449Z,498.0000
2023-05-20T06:12:08.481Z,487.0000
2023-05-20T06:13:16.832Z,490.0000
2023-05-20T06:14:24.573Z,488.0000
2023-05-20T06:15:32.789Z,495.0000
2023-05-20T06:16:40.779Z,513.0000
2023-05-20T06:17:48.904Z,502.0000
2023-05-20T06:18:56.956Z,503.0000
2023-05-20T06:20:04.864Z,496.0000
2023-05-20T06:21:13.004Z,511.0000
2023-05-20T06:22:20.868Z,492.0000
2023-05-20T06:23:28.951Z,498.0000
2023-05-20T06:24:36.977Z,513.0000
2023-05-20T06:25:45.186Z,505.0000
2023-05-20T06:26:53.222Z,497.0000
2023-05-20T06:28:01.403Z,503.0000
2023-05-20T06:29:09.402Z,492.0000
2023-05-20T06:30:17.521Z,494.0000
2023-05-20T06:31:25.576Z,492.0000
2023-05-20T06:32:33.678Z,475.0000
2023-05-20T06:33:41.722Z,503.0000
2023-05-20T06:34:49.824Z,503.0000
2023-05-20T06:35:57.928Z,496.0000
2023-05-20T06:37:05.712Z,498.0000
2023-05-20T06:38:13.810Z,511.0000
2023-05-20T06:39:21.831Z,495.0000
2023-05-20T06:40:30.039Z,497.0000
2023-05-20T06:41:38.128Z,501.0000
2023-05-20T06:42:46.109Z,488.0000
2023-05-20T06:43:54.285Z,493.0000
2023-05-20T06:45:02.282Z,496.0000
2023-05-20T06:46:10.350Z,503.0000
2023-05-20T06:47:18.402Z,474.0000
2023-05-20T06:48:26.504Z,503.0000
2023-05-20T06:49:34.489Z,489.0000
2023-05-20T06:50:42.639Z,488.0000
2023-05-20T06:51:50.502Z,501.0000
2023-05-20T06:52:58.615Z,512.0000
2023-05-20T06:54:06.687Z,502.0000
2023-05-20T06:55:14.868Z,514.0000
2023-05-20T06:56:22.871Z,503.0000
2023-05-20T06:57:30.949Z,503.0000
2023-05-20T06:58:39.054Z,496.0000
2023-05-20T06:59:47.054Z,490.0000
2023-05-20T07:00:55.109Z,512.0000
2023-05-20T07:02:03.324Z,516.0000
2023-05-20T07:03:11.262Z,481.0000
2023-05-20T07:04:19.372Z,517.0000
2023-05-20T07:05:27.435Z,481.0000
2023-05-20T07:06:35.280Z,497.0000
2023-05-20T07:07:43.367Z,517.0000
2023-05-20T07:08:51.414Z,500.0000
2023-05-20T07:09:59.646Z,509.0000
2023-05-20T07:11:07.532Z,492.0000
2023-05-20T07:12:15.603Z,465.0000
2023-05-20T07:13:23.791Z,491.0000
2023-05-20T07:14:31.879Z,517.0000
2023-05-20T07:15:39.899Z,494.0000
2023-05-20T07:16:48.108Z,494.0000
2023-05-20T07:17:56.095Z,482.0000
2023-05-20T07:19:04.166Z,493.0000
2023-05-20T07:20:12.234Z,512.0000
2023-05-20T07:21:20.081Z,481.0000
2023-05-20T07:22:28.167Z,509.0000
2023-05-20T07:23:36.216Z,482.0000
2023-05-20T07:24:44.411Z,499.0000
2023-05-20T07:25:52.466Z,509.0000
2023-05-20T07:27:00.549Z,484.0000
2023-05-20T07:28:08.574Z,489.0000
2023-05-20T07:29:16.645Z,493.0000
2023-05-20T07:30:24.795Z,479.0000
2023-05-20T07:31:32.798Z,479.0000
2023-05-20T07:32:41.033Z,475.0000
2023-05-20T07:33:48.940Z,490.0000
2023-05-20T07:34:56.987Z,484.0000
2023-05-20T07:36:04.917Z,485.0000
2023-05-20T07:37:12.933Z,505.0000
2023-05-20T07:38:20.989Z,489.0000
2023-05-20T07:39:29.088Z,499.0000
2023-05-20T07:40:37.120Z,500.0000
2023-05-20T07:41:45.411Z,473.0000
2023-05-20T07:42:53.315Z,500.0000
2023-05-20T07:44:01.406Z,497.0000
2023-05-20T07:45:09.457Z,488.0000
2023-05-20T07:46:19.355Z,505.0000
2023-05-20T07:47:30.477Z,488.0000
2023-05-20T07:48:38.537Z,495.0000
2023-05-20T07:49:46.600Z,510.0000
2023-05-20T07:50:54.621Z,500.0000
2023-05-20T07:52:03.165Z,491.0000
2023-05-20T07:53:10.704Z,493.0000
2023-05-20T07:54:18.706Z,507.0000
2023-05-20T07:55:26.935Z,500.0000
2023-05-20T07:56:34.966Z,496.0000
2023-05-20T07:57:44.726Z,487.0000
2023-05-20T07:58:55.937Z,508.0000
2023-05-20T08:00:04.024Z,480.0000
2023-05-20T08:01:12.072Z,514.0000
2023-05-20T08:02:20.172Z,473.0000
2023-05-20T08:03:28.293Z,503.0000
2023-05-20T08:04:36.304Z,483.0000
2023-05-20T08:05:44.170Z,484.0000
2023-05-20T08:06:52.221Z,498.0000
2023-05-20T08:08:00.296Z,506.0000
2023-05-20T08:09:08.677Z,486.0000
2023-05-20T08:10:16.531Z,500.0000
2023-05-20T08:11:24.588Z,499.0000
2023-05-20T08:12:32.667Z,490.0000
2023-05-20T08:13:40.954Z,502.0000
2023-05-20T08:14:48.750Z,478.0000
2023-05-20T08:15:57.020Z,493.0000
2023-05-20T08:17:04.924Z,483.0000
2023-05-20T08:18:13.096Z,489.0000
2023-05-20T08:19:21.057Z,475.0000
2023-05-20T08:20:28.927Z,490.0000
2023-05-20T08:21:36.998Z,481.0000
2023-05-20T08:22:45.058Z,507.0000
2023-05-20T08:23:53.263Z,488.0000
2023-05-20T08:25:01.250Z,460.0000
2023-05-20T08:26:09.216Z,499.0000
2023-05-20T08:27:17.446Z,486.0000
2023-05-20T08:28:25.473Z,493.0000
2023-05-20T08:29:33.778Z,490.0000
2023-05-20T08:30:41.871Z,493.0000
2023-05-20T08:31:49.657Z,483.0000
2023-05-20T08:32:57.717Z,489.0000
2023-05-20T08:34:05.969Z,492.0000
2023-05-20T08:35:13.754Z,476.0000
2023-05-20T08:36:21.816Z,482.0000
2023-05-20T08:37:29.825Z,483.0000
2023-05-20T08:38:38.014Z,506.0000
2023-05-20T08:39:46.135Z,466.0000
2023-05-20T08:40:54.027Z,506.0000
2023-05-20T08:42:02.204Z,502.0000
2023-05-20T08:43:10.274Z,494.0000
2023-05-20T08:44:18.338Z,478.0000
2023-05-20T08:45:26.503Z,494.0000
2023-05-20T08:46:34.483Z,483.0000
2023-05-20T08:47:42.501Z,528.0000
2023-05-20T08:48:50.637Z,481.0000
2023-05-20T08:49:58.485Z,490.0000
2023-05-20T08:51:06.575Z,480.0000
2023-05-20T08:52:14.611Z,482.0000
2023-05-20T08:53:22.760Z,484.0000
2023-05-20T08:54:30.856Z,496.0000
2023-05-20T08:55:39.188Z,478.0000
2023-05-20T08:56:46.975Z,478.0000
2023-05-20T08:57:54.888Z,475.0000
2023-05-20T08:59:03.104Z,493.0000
2023-05-20T09:00:11.054Z,502.0000
2023-05-20T09:01:19.237Z,485.0000
2023-05-20T09:02:27.332Z,499.0000
2023-05-20T09:03:35.336Z,494.0000
2023-05-20T09:04:43.293Z,488.0000
2023-05-20T09:05:51.313Z,543.0000
2023-05-20T09:06:59.333Z,508.0000
2023-05-20T09:08:07.555Z,475.0000
2023-05-20T09:09:15.453Z,496.0000
2023-05-20T09:10:23.751Z,494.0000
2023-05-20T09:11:31.646Z,487.0000
2023-05-20T09:12:39.764Z,490.0000
2023-05-20T09:13:47.851Z,486.0000
2023-05-20T09:14:55.890Z,488.0000
2023-05-20T09:16:04.055Z,492.0000
2023-05-20T09:17:12.209Z,495.0000
2023-05-20T09:18:20.073Z,501.0000
2023-05-20T09:19:28.023Z,475.0000
2023-05-20T09:20:36.071Z,489.0000
2023-05-20T09:21:44.107Z,491.0000
2023-05-20T09:22:52.236Z,486.0000
2023-05-20T09:24:00.339Z,485.0000
2023-05-20T09:25:08.373Z,497.0000
2023-05-20T09:26:16.463Z,497.0000
2023-05-20T09:27:24.474Z,502.0000
2023-05-20T09:28:32.896Z,506.0000
2023-05-20T09:29:40.595Z,493.0000
2023-05-20T09:30:48.718Z,514.0000
2023-05-20T09:31:56.814Z,496.0000
2023-05-20T09:33:04.933Z,487.0000
2023-05-20T09:34:12.856Z,493.0000
2023-05-20T09:35:20.900Z,492.0000
2023-05-20T09:36:28.962Z,493.0000
2023-05-20T09:37:37.162Z,479.0000
2023-05-20T09:38:45.175Z,477.0000
2023-05-20T09:39:53.293Z,478.0000
2023-05-20T09:41:01.290Z,494.0000
2023-05-20T09:42:09.478Z,494.0000
2023-05-20T09:43:17.442Z,501.0000
2023-05-20T09:44:25.454Z,496.0000
2023-05-20T09:45:33.711Z,485.0000
2023-05-20T09:46:41.745Z,485.0000
2023-05-20T09:47:49.703Z,494.0000
2023-05-20T09:48:57.662Z,488.0000
2023-05-20T09:50:05.648Z,472.0000
2023-05-20T09:51:13.771Z,494.0000
2023-05-20T09:52:21.787Z,463.0000
2023-05-20T09:53:29.948Z,485.0000
2023-05-20T09:54:38.084Z,514.0000
2023-05-20T09:55:46.088Z,481.0000
2023-05-20T09:56:54.243Z,490.0000
2023-05-20T09:58:02.239Z,506.0000
2023-05-20T09:59:10.282Z,516.0000
2023-05-20T10:00:18.319Z,472.0000
2023-05-20T10:01:26.527Z,480.0000
2023-05-20T10:02:34.627Z,494.0000
2023-05-20T10:03:44.144Z,468.0000
2023-05-20T10:04:55.395Z,476.0000
2023-05-20T10:06:03.377Z,489.0000
2023-05-20T10:07:11.456Z,461.0000
2023-05-20T10:08:19.656Z,503.0000
2023-05-20T10:09:27.749Z,495.0000
2023-05-20T10:10:35.788Z,473.0000
2023-05-20T10:11:43.815Z,500.0000
2023-05-20T10:12:51.937Z,493.0000
2023-05-20T10:13:59.994Z,488.0000
2023-05-20T10:15:07.983Z,464.0000
2023-05-20T10:16:16.131Z,463.0000
2023-05-20T10:17:24.166Z,467.0000
2023-05-20T10:18:32.233Z,522.0000
2023-05-20T10:19:40.326Z,464.0000
2023-05-20T10:20:48.348Z,506.0000
2023-05-20T10:21:56.275Z,479.0000
2023-05-20T10:23:04.336Z,471.0000
2023-05-20T10:24:12.399Z,467.0000
2023-05-20T10:25:20.579Z,474.0000
2023-05-20T10:26:28.603Z,474.0000
2023-05-20T10:27:36.655Z,491.0000
2023-05-20T10:28:44.770Z,484.0000
2023-05-20T10:29:52.863Z,468.0000
2023-05-20T10:31:00.904Z,492.0000
2023-05-20T10:32:08.984Z,481.0000
2023-05-20T10:33:17.091Z,466.0000
2023-05-20T10:34:25.078Z,491.0000
2023-05-20T10:35:33.276Z,473.0000
2023-05-20T10:36:42.723Z,474.0000
2023-05-20T10:37:49.159Z,472.0000
2023-05-20T10:38:57.260Z,484.0000
2023-05-20T10:40:05.403Z,503.0000
2023-05-20T10:41:13.517Z,484.0000
2023-05-20T10:42:21.526Z,476.0000
2023-05-20T10:43:29.598Z,471.0000
2023-05-20T10:44:37.674Z,495.0000
2023-05-20T10:45:45.769Z,495.0000
2023-05-20T10:47:13.215Z,477.0000
2023-05-20T10:48:06.732Z,469.0000
2023-05-20T10:49:14.765Z,475.0000
2023-05-20T10:50:22.695Z,491.0000
2023-05-20T10:51:30.785Z,482.0000
2023-05-20T10:52:38.815Z,474.0000
2023-05-20T10:53:47.013Z,469.0000
2023-05-20T10:54:55.148Z,507.0000
2023-05-20T10:56:03.138Z,462.0000
2023-05-20T10:57:11.368Z,486.0000
2023-05-20T10:58:19.265Z,467.0000
2023-05-20T10:59:27.434Z,488.0000
2023-05-20T11:00:35.657Z,472.0000
2023-05-20T11:01:43.666Z,476.0000
2023-05-20T11:02:51.524Z,475.0000
2023-05-20T11:03:59.836Z,477.0000
2023-05-20T11:05:07.534Z,481.0000
2023-05-20T11:06:17.622Z,447.0000
2023-05-20T11:07:28.652Z,473.0000
2023-05-20T11:08:36.632Z,457.0000
2023-05-20T11:09:44.745Z,485.0000
2023-05-20T11:10:52.911Z,481.0000
2023-05-20T11:12:00.843Z,455.0000
2023-05-20T11:13:08.968Z,467.0000
2023-05-20T11:14:17.112Z,487.0000
2023-05-20T11:15:25.091Z,466.0000
2023-05-20T11:16:33.251Z,466.0000
2023-05-20T11:17:41.426Z,462.0000
2023-05-20T11:18:49.155Z,484.0000
2023-05-20T11:19:57.244Z,462.0000
2023-05-20T11:21:05.314Z,464.0000
2023-05-20T11:22:13.403Z,483.0000
2023-05-20T11:23:21.505Z,472.0000
2023-05-20T11:24:29.595Z,482.0000
2023-05-20T11:25:37.665Z,467.0000
2023-05-20T11:26:45.644Z,444.0000
2023-05-20T11:27:53.801Z,472.0000
2023-05-20T11:29:01.875Z,471.0000
2023-05-20T11:30:09.838Z,489.0000
2023-05-20T11:31:17.973Z,480.0000
2023-05-20T11:32:26.066Z,464.0000
2023-05-20T11:33:33.905Z,486.0000
2023-05-20T11:34:41.983Z,446.0000
2023-05-20T11:35:50.009Z,479.0000
2023-05-20T11:36:58.241Z,483.0000
2023-05-20T11:38:06.291Z,481.0000
2023-05-20T11:39:14.485Z,461.0000
2023-05-20T11:40:22.383Z,483.0000
2023-05-20T11:41:30.442Z,478.0000
2023-05-20T11:42:38.544Z,449.0000
2023-05-20T11:43:46.551Z,493.0000
2023-05-20T11:44:54.606Z,460.0000
2023-05-20T11:46:02.802Z,507.0000
2023-05-20T11:47:10.839Z,453.0000
2023-05-20T11:48:18.697Z,429.0000
2023-05-20T11:49:26.758Z,483.0000
2023-05-20T11:50:35.079Z,476.0000
2023-05-20T11:51:43.414Z,475.0000
2023-05-20T11:52:51.091Z,447.0000
2023-05-20T11:53:59.145Z,497.0000
2023-05-20T11:55:07.214Z,465.0000
2023-05-20T11:56:15.292Z,512.0000
2023-05-20T11:57:23.319Z,492.0000
2023-05-20T11:58:31.442Z,469.0000
2023-05-20T11:59:39.695Z,474.0000
2023-05-20T12:00:51.640Z,484.0000
2023-05-20T12:02:00.322Z,453.0000
2023-05-20T12:03:08.469Z,482.0000
2023-05-20T12:04:16.517Z,488.0000
2023-05-20T12:05:24.632Z,458.0000
2023-05-20T12:06:32.752Z,474.0000
2023-05-20T12:07:40.752Z,471.0000
2023-05-20T12:08:48.796Z,468.0000
2023-05-20T12:09:56.834Z,468.0000
2023-05-20T12:11:04.910Z,471.0000
2023-05-20T12:12:13.074Z,463.0000
2023-05-20T12:13:21.130Z,473.0000
2023-05-20T12:14:29.178Z,469.0000
2023-05-20T12:15:37.228Z,453.0000
2023-05-20T12:16:45.168Z,462.0000
2023-05-20T12:17:53.253Z,482.0000
2023-05-20T12:19:01.265Z,478.0000
2023-05-20T12:20:09.396Z,455.0000
2023-05-20T12:21:17.530Z,478.0000
2023-05-20T12:22:25.604Z,462.0000
2023-05-20T12:23:33.613Z,490.0000
2023-05-20T12:24:41.813Z,508.0000
2023-05-20T12:25:49.699Z,468.0000
2023-05-20T12:26:57.931Z,474.0000
2023-05-20T12:28:05.822Z,466.0000
2023-05-20T12:29:13.976Z,494.0000
2023-05-20T12:30:22.001Z,436.0000
2023-05-20T12:31:31.871Z,461.0000
2023-05-20T12:32:42.896Z,473.0000
2023-05-20T12:33:50.919Z,495.0000
2023-05-20T12:34:58.942Z,474.0000
2023-05-20T12:36:07.275Z,429.0000
2023-05-20T12:37:15.290Z,464.0000
2023-05-20T12:38:23.299Z,462.0000
2023-05-20T12:39:31.287Z,472.0000
2023-05-20T12:40:39.403Z,473.0000
2023-05-20T12:41:47.538Z,459.0000
2023-05-20T12:42:55.521Z,437.0000
2023-05-20T12:44:03.540Z,466.0000
2023-05-20T12:45:11.797Z,478.0000
2023-05-20T12:46:19.709Z,461.0000
2023-05-20T12:47:27.677Z,479.0000
2023-05-20T12:48:35.700Z,469.0000
2023-05-20T12:49:43.788Z,472.0000
2023-05-20T12:50:52.023Z,481.0000
2023-05-20T12:52:03.427Z,475.0000
2023-05-20T12:53:12.988Z,468.0000
2023-05-20T12:54:21.011Z,482.0000
2023-05-20T12:55:29.012Z,447.0000
2023-05-20T12:56:37.427Z,444.0000
2023-05-20T12:57:45.239Z,440.0000
2023-05-20T12:58:53.273Z,483.0000
2023-05-20T13:00:01.497Z,479.0000
2023-05-20T13:01:09.251Z,471.0000
2023-05-20T13:02:17.337Z,446.0000
2023-05-20T13:03:25.449Z,450.0000
2023-05-20T13:04:33.538Z,494.0000
2023-05-20T13:05:41.651Z,454.0000
2023-05-20T13:06:49.671Z,443.0000
2023-05-20T13:07:57.952Z,469.0000
2023-05-20T13:09:05.811Z,474.0000
2023-05-20T13:10:13.885Z,452.0000
2023-05-20T13:11:21.921Z,470.0000
2023-05-20T13:12:29.984Z,468.0000
2023-05-20T13:13:38.125Z,444.0000
2023-05-20T13:14:46.163Z,462.0000
2023-05-20T13:15:54.068Z,476.0000
2023-05-20T13:17:02.235Z,433.0000
2023-05-20T13:18:10.298Z,453.0000
2023-05-20T13:19:18.420Z,468.0000